sensor_id;sensor_type;location;lat;lon;timestamp;pressure;altitude;pressure_sealevel;temperature;humidity
53246;BME280;39569;51.090;-1.786;2022-09-02T00:01:12;100869.81;;;21.15;61.96
53246;BME280;39569;51.090;-1.786;2022-09-02T00:03:41;100865.09;;;21.11;62.37
53246;BME280;39569;51.090;-1.786;2022-09-02T00:06:08;100869.69;;;21.22;62.20
53246;BME280;39569;51.090;-1.786;2022-09-02T00:08:35;100865.50;;;21.31;62.13
53246;BME280;39569;51.090;-1.786;2022-09-02T00:11:03;100867.63;;;21.01;63.02
53246;BME280;39569;51.090;-1.786;2022-09-02T00:13:32;100858.16;;;21.03;62.98
53246;BME280;39569;51.090;-1.786;2022-09-02T00:15:59;100862.50;;;21.16;62.61
53246;BME280;39569;51.090;-1.786;2022-09-02T00:18:26;100864.97;;;20.94;63.06
53246;BME280;39569;51.090;-1.786;2022-09-02T00:20:54;100856.69;;;21.12;62.93
53246;BME280;39569;51.090;-1.786;2022-09-02T00:23:21;100854.72;;;20.85;63.62
53246;BME280;39569;51.090;-1.786;2022-09-02T00:25:48;100855.28;;;20.98;63.43
53246;BME280;39569;51.090;-1.786;2022-09-02T00:28:16;100858.84;;;20.87;63.70
53246;BME280;39569;51.090;-1.786;2022-09-02T00:30:43;100854.63;;;21.03;63.13
53246;BME280;39569;51.090;-1.786;2022-09-02T00:33:11;100849.88;;;20.98;63.37
53246;BME280;39569;51.090;-1.786;2022-09-02T00:35:38;100846.31;;;21.21;62.49
53246;BME280;39569;51.090;-1.786;2022-09-02T00:38:06;100853.28;;;20.94;63.35
53246;BME280;39569;51.090;-1.786;2022-09-02T00:40:34;100850.66;;;21.22;62.34
53246;BME280;39569;51.090;-1.786;2022-09-02T00:43:05;100855.09;;;20.77;64.19
53246;BME280;39569;51.090;-1.786;2022-09-02T00:45:31;100852.09;;;21.52;61.17
53246;BME280;39569;51.090;-1.786;2022-09-02T00:47:58;100845.06;;;21.00;62.93
53246;BME280;39569;51.090;-1.786;2022-09-02T00:50:28;100844.22;;;21.00;63.18
53246;BME280;39569;51.090;-1.786;2022-09-02T00:52:58;100845.19;;;20.82;63.41
53246;BME280;39569;51.090;-1.786;2022-09-02T00:55:30;100835.34;;;20.93;63.16
53246;BME280;39569;51.090;-1.786;2022-09-02T00:58:00;100841.50;;;20.88;63.17
53246;BME280;39569;51.090;-1.786;2022-09-02T01:00:30;100848.25;;;20.86;63.38
53246;BME280;39569;51.090;-1.786;2022-09-02T01:03:00;100843.03;;;21.07;62.54
53246;BME280;39569;51.090;-1.786;2022-09-02T01:05:30;100844.19;;;20.88;63.34
53246;BME280;39569;51.090;-1.786;2022-09-02T01:07:59;100838.78;;;21.11;62.56
53246;BME280;39569;51.090;-1.786;2022-09-02T01:10:31;100840.69;;;20.76;63.63
53246;BME280;39569;51.090;-1.786;2022-09-02T01:13:00;100831.63;;;20.47;64.47
53246;BME280;39569;51.090;-1.786;2022-09-02T01:15:32;100831.97;;;20.63;64.48
53246;BME280;39569;51.090;-1.786;2022-09-02T01:18:01;100833.97;;;20.44;64.95
53246;BME280;39569;51.090;-1.786;2022-09-02T01:20:29;100833.88;;;20.39;65.45
53246;BME280;39569;51.090;-1.786;2022-09-02T01:22:57;100825.84;;;20.67;64.53
53246;BME280;39569;51.090;-1.786;2022-09-02T01:25:26;100828.56;;;20.21;66.19
53246;BME280;39569;51.090;-1.786;2022-09-02T01:27:58;100826.56;;;20.51;65.20
53246;BME280;39569;51.090;-1.786;2022-09-02T01:30:26;100821.59;;;20.48;65.34
53246;BME280;39569;51.090;-1.786;2022-09-02T01:32:53;100815.56;;;20.69;64.61
53246;BME280;39569;51.090;-1.786;2022-09-02T01:35:20;100819.31;;;20.68;64.86
53246;BME280;39569;51.090;-1.786;2022-09-02T01:37:47;100825.38;;;20.59;64.97
53246;BME280;39569;51.090;-1.786;2022-09-02T01:40:16;100818.88;;;20.48;65.35
53246;BME280;39569;51.090;-1.786;2022-09-02T01:42:45;100815.34;;;20.47;65.34
53246;BME280;39569;51.090;-1.786;2022-09-02T01:45:12;100815.22;;;20.54;65.27
53246;BME280;39569;51.090;-1.786;2022-09-02T01:47:40;100816.63;;;20.68;64.50
53246;BME280;39569;51.090;-1.786;2022-09-02T01:50:08;100808.47;;;20.80;64.61
53246;BME280;39569;51.090;-1.786;2022-09-02T01:52:35;100812.03;;;20.69;64.78
53246;BME280;39569;51.090;-1.786;2022-09-02T01:55:03;100797.75;;;20.50;65.17
53246;BME280;39569;51.090;-1.786;2022-09-02T01:57:31;100805.38;;;20.99;63.65
53246;BME280;39569;51.090;-1.786;2022-09-02T01:59:58;100804.63;;;20.52;64.89
53246;BME280;39569;51.090;-1.786;2022-09-02T02:02:27;100803.75;;;20.06;66.39
53246;BME280;39569;51.090;-1.786;2022-09-02T02:04:53;100802.97;;;20.28;65.77
53246;BME280;39569;51.090;-1.786;2022-09-02T02:07:21;100802.72;;;20.41;65.41
53246;BME280;39569;51.090;-1.786;2022-09-02T02:09:49;100802.03;;;20.23;65.70
53246;BME280;39569;51.090;-1.786;2022-09-02T02:12:17;100792.44;;;19.97;66.91
53246;BME280;39569;51.090;-1.786;2022-09-02T02:14:46;100797.81;;;19.86;67.43
53246;BME280;39569;51.090;-1.786;2022-09-02T02:17:12;100787.03;;;20.20;65.98
53246;BME280;39569;51.090;-1.786;2022-09-02T02:19:39;100789.69;;;20.09;66.52
53246;BME280;39569;51.090;-1.786;2022-09-02T02:22:06;100786.06;;;20.49;65.18
53246;BME280;39569;51.090;-1.786;2022-09-02T02:24:34;100784.28;;;20.09;66.35
53246;BME280;39569;51.090;-1.786;2022-09-02T02:27:02;100779.81;;;20.61;64.55
53246;BME280;39569;51.090;-1.786;2022-09-02T02:29:28;100780.88;;;20.13;66.18
53246;BME280;39569;51.090;-1.786;2022-09-02T02:31:56;100780.53;;;20.10;66.34
53246;BME280;39569;51.090;-1.786;2022-09-02T02:34:23;100781.09;;;20.00;66.70
53246;BME280;39569;51.090;-1.786;2022-09-02T02:36:50;100773.38;;;20.27;65.81
53246;BME280;39569;51.090;-1.786;2022-09-02T02:39:17;100769.16;;;19.78;67.28
53246;BME280;39569;51.090;-1.786;2022-09-02T02:41:43;100770.50;;;20.10;66.51
53246;BME280;39569;51.090;-1.786;2022-09-02T02:44:11;100779.44;;;20.11;66.48
53246;BME280;39569;51.090;-1.786;2022-09-02T02:46:37;100773.44;;;20.67;64.72
53246;BME280;39569;51.090;-1.786;2022-09-02T02:49:06;100768.38;;;20.59;64.96
53246;BME280;39569;51.090;-1.786;2022-09-02T02:51:33;100778.16;;;20.13;66.18
53246;BME280;39569;51.090;-1.786;2022-09-02T02:54:00;100770.41;;;20.28;65.87
53246;BME280;39569;51.090;-1.786;2022-09-02T02:56:28;100777.97;;;20.26;66.02
53246;BME280;39569;51.090;-1.786;2022-09-02T02:58:55;100773.22;;;20.22;65.60
53246;BME280;39569;51.090;-1.786;2022-09-02T03:01:24;100780.28;;;20.11;66.06
53246;BME280;39569;51.090;-1.786;2022-09-02T03:03:51;100774.66;;;20.24;65.82
53246;BME280;39569;51.090;-1.786;2022-09-02T03:06:20;100772.63;;;20.08;66.45
53246;BME280;39569;51.090;-1.786;2022-09-02T03:08:46;100771.81;;;20.54;64.62
53246;BME280;39569;51.090;-1.786;2022-09-02T03:11:14;100769.19;;;20.59;64.62
53246;BME280;39569;51.090;-1.786;2022-09-02T03:13:41;100770.53;;;20.22;65.94
53246;BME280;39569;51.090;-1.786;2022-09-02T03:16:08;100771.09;;;20.01;66.66
53246;BME280;39569;51.090;-1.786;2022-09-02T03:18:35;100772.56;;;20.89;63.68
53246;BME280;39569;51.090;-1.786;2022-09-02T03:21:05;100766.53;;;20.87;63.85
53246;BME280;39569;51.090;-1.786;2022-09-02T03:23:34;100761.69;;;20.89;63.61
53246;BME280;39569;51.090;-1.786;2022-09-02T03:26:01;100760.94;;;20.94;63.53
53246;BME280;39569;51.090;-1.786;2022-09-02T03:28:29;100757.53;;;20.47;64.57
53246;BME280;39569;51.090;-1.786;2022-09-02T03:30:57;100758.72;;;20.39;65.15
53246;BME280;39569;51.090;-1.786;2022-09-02T03:33:24;100757.09;;;20.27;65.62
53246;BME280;39569;51.090;-1.786;2022-09-02T03:35:50;100755.78;;;20.18;65.96
53246;BME280;39569;51.090;-1.786;2022-09-02T03:38:17;100754.78;;;20.12;65.98
53246;BME280;39569;51.090;-1.786;2022-09-02T03:40:45;100747.97;;;20.33;65.37
53246;BME280;39569;51.090;-1.786;2022-09-02T03:43:13;100743.97;;;20.47;64.74
53246;BME280;39569;51.090;-1.786;2022-09-02T03:45:40;100745.84;;;20.00;66.36
53246;BME280;39569;51.090;-1.786;2022-09-02T03:48:07;100753.63;;;19.97;66.36
53246;BME280;39569;51.090;-1.786;2022-09-02T03:50:38;100752.22;;;20.40;65.42
53246;BME280;39569;51.090;-1.786;2022-09-02T03:53:07;100744.44;;;20.44;65.00
53246;BME280;39569;51.090;-1.786;2022-09-02T03:55:35;100745.72;;;20.53;64.51
53246;BME280;39569;51.090;-1.786;2022-09-02T03:58:04;100744.34;;;20.27;65.24
53246;BME280;39569;51.090;-1.786;2022-09-02T04:00:31;100739.03;;;20.21;65.67
53246;BME280;39569;51.090;-1.786;2022-09-02T04:02:58;100741.28;;;20.35;65.05
53246;BME280;39569;51.090;-1.786;2022-09-02T04:05:26;100740.88;;;20.09;66.10
53246;BME280;39569;51.090;-1.786;2022-09-02T04:07:52;100729.25;;;20.08;65.75
53246;BME280;39569;51.090;-1.786;2022-09-02T04:10:20;100726.16;;;20.16;65.54
53246;BME280;39569;51.090;-1.786;2022-09-02T04:12:47;100730.06;;;20.20;65.54
53246;BME280;39569;51.090;-1.786;2022-09-02T04:15:15;100734.16;;;20.00;66.50
53246;BME280;39569;51.090;-1.786;2022-09-02T04:17:43;100731.59;;;19.93;66.59
53246;BME280;39569;51.090;-1.786;2022-09-02T04:20:11;100733.56;;;19.98;66.91
53246;BME280;39569;51.090;-1.786;2022-09-02T04:22:39;100734.91;;;19.95;67.12
53246;BME280;39569;51.090;-1.786;2022-09-02T04:25:06;100737.72;;;20.12;66.83
53246;BME280;39569;51.090;-1.786;2022-09-02T04:27:34;100727.44;;;20.48;65.42
53246;BME280;39569;51.090;-1.786;2022-09-02T04:30:01;100726.16;;;20.39;65.79
53246;BME280;39569;51.090;-1.786;2022-09-02T04:32:30;100717.19;;;20.50;65.42
53246;BME280;39569;51.090;-1.786;2022-09-02T04:34:57;100720.63;;;20.34;66.04
53246;BME280;39569;51.090;-1.786;2022-09-02T04:37:24;100709.78;;;20.23;66.83
53246;BME280;39569;51.090;-1.786;2022-09-02T04:39:51;100715.91;;;20.41;66.31
53246;BME280;39569;51.090;-1.786;2022-09-02T04:42:18;100713.72;;;20.55;65.80
53246;BME280;39569;51.090;-1.786;2022-09-02T04:44:45;100714.13;;;20.35;66.44
53246;BME280;39569;51.090;-1.786;2022-09-02T04:47:12;100708.63;;;20.19;67.20
53246;BME280;39569;51.090;-1.786;2022-09-02T04:49:40;100710.50;;;19.95;68.03
53246;BME280;39569;51.090;-1.786;2022-09-02T04:52:07;100707.03;;;20.46;66.55
53246;BME280;39569;51.090;-1.786;2022-09-02T04:54:35;100707.88;;;20.86;64.88
53246;BME280;39569;51.090;-1.786;2022-09-02T04:57:02;100713.88;;;20.48;66.47
53246;BME280;39569;51.090;-1.786;2022-09-02T04:59:29;100712.00;;;20.49;66.12
53246;BME280;39569;51.090;-1.786;2022-09-02T05:01:56;100709.06;;;20.16;67.58
53246;BME280;39569;51.090;-1.786;2022-09-02T05:04:23;100712.59;;;20.51;66.16
53246;BME280;39569;51.090;-1.786;2022-09-02T05:06:52;100716.47;;;20.83;64.76
53246;BME280;39569;51.090;-1.786;2022-09-02T05:09:20;100707.41;;;20.78;64.84
53246;BME280;39569;51.090;-1.786;2022-09-02T05:11:47;100711.56;;;20.69;65.45
53246;BME280;39569;51.090;-1.786;2022-09-02T05:14:14;100708.00;;;20.40;66.51
53246;BME280;39569;51.090;-1.786;2022-09-02T05:16:42;100715.19;;;20.11;67.23
53246;BME280;39569;51.090;-1.786;2022-09-02T05:19:10;100710.72;;;20.40;66.38
53246;BME280;39569;51.090;-1.786;2022-09-02T05:21:39;100711.53;;;20.40;66.54
53246;BME280;39569;51.090;-1.786;2022-09-02T05:24:08;100707.69;;;20.25;67.09
53246;BME280;39569;51.090;-1.786;2022-09-02T05:26:35;100708.13;;;20.33;66.57
53246;BME280;39569;51.090;-1.786;2022-09-02T05:29:02;100708.81;;;19.30;70.49
53246;BME280;39569;51.090;-1.786;2022-09-02T05:31:31;100712.63;;;20.05;67.92
53246;BME280;39569;51.090;-1.786;2022-09-02T05:33:58;100707.09;;;20.23;66.98
53246;BME280;39569;51.090;-1.786;2022-09-02T05:36:25;100711.56;;;20.17;67.29
53246;BME280;39569;51.090;-1.786;2022-09-02T05:38:52;100704.47;;;20.05;67.53
53246;BME280;39569;51.090;-1.786;2022-09-02T05:41:22;100719.31;;;20.02;67.76
53246;BME280;39569;51.090;-1.786;2022-09-02T05:43:49;100711.91;;;19.75;68.68
53246;BME280;39569;51.090;-1.786;2022-09-02T05:46:19;100717.22;;;20.04;67.87
53246;BME280;39569;51.090;-1.786;2022-09-02T05:48:48;100715.31;;;19.82;68.69
53246;BME280;39569;51.090;-1.786;2022-09-02T05:51:39;100717.34;;;20.21;67.23
53246;BME280;39569;51.090;-1.786;2022-09-02T05:54:08;100721.78;;;20.15;67.58
53246;BME280;39569;51.090;-1.786;2022-09-02T05:56:40;100720.03;;;19.86;68.05
53246;BME280;39569;51.090;-1.786;2022-09-02T05:59:07;100718.97;;;20.22;66.99
53246;BME280;39569;51.090;-1.786;2022-09-02T06:01:35;100721.88;;;20.55;65.96
53246;BME280;39569;51.090;-1.786;2022-09-02T06:04:03;100715.44;;;19.98;67.75
53246;BME280;39569;51.090;-1.786;2022-09-02T06:06:31;100714.94;;;20.47;66.67
53246;BME280;39569;51.090;-1.786;2022-09-02T06:08:59;100721.78;;;20.50;66.37
53246;BME280;39569;51.090;-1.786;2022-09-02T06:11:26;100722.41;;;20.80;65.31
53246;BME280;39569;51.090;-1.786;2022-09-02T06:13:54;100723.34;;;20.86;65.00
53246;BME280;39569;51.090;-1.786;2022-09-02T06:16:22;100724.50;;;20.50;66.30
53246;BME280;39569;51.090;-1.786;2022-09-02T06:18:50;100721.19;;;20.36;66.80
53246;BME280;39569;51.090;-1.786;2022-09-02T06:21:18;100719.16;;;20.55;66.18
53246;BME280;39569;51.090;-1.786;2022-09-02T06:23:46;100717.34;;;20.72;65.91
53246;BME280;39569;51.090;-1.786;2022-09-02T06:26:15;100707.63;;;20.48;66.63
53246;BME280;39569;51.090;-1.786;2022-09-02T06:28:43;100714.31;;;20.57;66.20
53246;BME280;39569;51.090;-1.786;2022-09-02T06:31:13;100716.31;;;20.73;65.91
53246;BME280;39569;51.090;-1.786;2022-09-02T06:33:40;100714.38;;;20.74;65.81
53246;BME280;39569;51.090;-1.786;2022-09-02T06:36:08;100713.19;;;20.81;65.49
53246;BME280;39569;51.090;-1.786;2022-09-02T06:38:36;100713.53;;;20.85;65.74
53246;BME280;39569;51.090;-1.786;2022-09-02T06:41:04;100719.41;;;21.05;65.00
53246;BME280;39569;51.090;-1.786;2022-09-02T06:43:30;100721.00;;;21.17;64.57
53246;BME280;39569;51.090;-1.786;2022-09-02T06:45:57;100728.59;;;21.04;64.76
53246;BME280;39569;51.090;-1.786;2022-09-02T06:48:25;100716.84;;;21.15;64.44
53246;BME280;39569;51.090;-1.786;2022-09-02T06:50:52;100721.38;;;20.98;65.10
53246;BME280;39569;51.090;-1.786;2022-09-02T06:53:20;100720.22;;;21.05;64.64
53246;BME280;39569;51.090;-1.786;2022-09-02T06:55:47;100722.00;;;21.28;64.21
53246;BME280;39569;51.090;-1.786;2022-09-02T06:58:13;100720.63;;;21.59;63.14
53246;BME280;39569;51.090;-1.786;2022-09-02T07:00:41;100720.66;;;20.74;65.88
53246;BME280;39569;51.090;-1.786;2022-09-02T07:03:09;100721.34;;;21.37;64.16
53246;BME280;39569;51.090;-1.786;2022-09-02T07:06:04;100707.28;;;22.07;61.95
53246;BME280;39569;51.090;-1.786;2022-09-02T07:08:34;100717.84;;;22.03;62.01
53246;BME280;39569;51.090;-1.786;2022-09-02T07:11:00;100715.66;;;22.22;60.96
53246;BME280;39569;51.090;-1.786;2022-09-02T07:13:27;100721.97;;;22.06;61.39
53246;BME280;39569;51.090;-1.786;2022-09-02T07:15:54;100711.09;;;21.89;62.02
53246;BME280;39569;51.090;-1.786;2022-09-02T07:18:21;100714.66;;;21.90;62.41
53246;BME280;39569;51.090;-1.786;2022-09-02T07:20:48;100712.47;;;21.59;63.47
53246;BME280;39569;51.090;-1.786;2022-09-02T07:23:16;100711.34;;;21.71;63.26
53246;BME280;39569;51.090;-1.786;2022-09-02T07:25:42;100699.22;;;22.12;61.95
53246;BME280;39569;51.090;-1.786;2022-09-02T07:28:10;100704.09;;;22.31;61.49
53246;BME280;39569;51.090;-1.786;2022-09-02T07:30:40;100701.41;;;22.15;61.68
53246;BME280;39569;51.090;-1.786;2022-09-02T07:33:08;100696.56;;;22.38;61.39
53246;BME280;39569;51.090;-1.786;2022-09-02T07:35:35;100691.75;;;21.86;62.75
53246;BME280;39569;51.090;-1.786;2022-09-02T07:38:03;100693.63;;;22.23;61.62
53246;BME280;39569;51.090;-1.786;2022-09-02T07:40:33;100689.03;;;22.24;62.04
53246;BME280;39569;51.090;-1.786;2022-09-02T07:43:02;100691.22;;;21.39;64.67
53246;BME280;39569;51.090;-1.786;2022-09-02T07:45:29;100696.94;;;21.09;65.82
53246;BME280;39569;51.090;-1.786;2022-09-02T07:47:56;100702.94;;;21.11;65.50
53246;BME280;39569;51.090;-1.786;2022-09-02T07:50:24;100696.72;;;21.27;64.97
53246;BME280;39569;51.090;-1.786;2022-09-02T07:52:52;100694.72;;;20.95;66.10
53246;BME280;39569;51.090;-1.786;2022-09-02T07:55:18;100692.50;;;21.20;65.00
53246;BME280;39569;51.090;-1.786;2022-09-02T07:57:48;100690.56;;;21.32;64.58
53246;BME280;39569;51.090;-1.786;2022-09-02T08:00:16;100701.88;;;21.12;65.57
53246;BME280;39569;51.090;-1.786;2022-09-02T08:02:44;100694.16;;;21.21;65.25
53246;BME280;39569;51.090;-1.786;2022-09-02T08:05:12;100693.72;;;20.84;66.24
53246;BME280;39569;51.090;-1.786;2022-09-02T08:07:40;100691.72;;;21.36;64.67
53246;BME280;39569;51.090;-1.786;2022-09-02T08:10:08;100692.97;;;21.62;63.43
53246;BME280;39569;51.090;-1.786;2022-09-02T08:12:38;100692.94;;;21.45;64.35
53246;BME280;39569;51.090;-1.786;2022-09-02T08:15:09;100693.44;;;21.42;64.58
53246;BME280;39569;51.090;-1.786;2022-09-02T08:17:37;100689.31;;;21.73;63.89
53246;BME280;39569;51.090;-1.786;2022-09-02T08:20:06;100683.47;;;21.47;64.33
53246;BME280;39569;51.090;-1.786;2022-09-02T08:22:33;100695.06;;;21.26;64.93
53246;BME280;39569;51.090;-1.786;2022-09-02T08:25:00;100678.44;;;21.73;63.67
53246;BME280;39569;51.090;-1.786;2022-09-02T08:27:27;100687.50;;;22.11;62.04
53246;BME280;39569;51.090;-1.786;2022-09-02T08:29:54;100677.78;;;21.99;62.27
53246;BME280;39569;51.090;-1.786;2022-09-02T08:32:22;100689.09;;;21.91;62.75
53246;BME280;39569;51.090;-1.786;2022-09-02T08:34:49;100685.94;;;21.99;62.61
53246;BME280;39569;51.090;-1.786;2022-09-02T08:37:16;100678.63;;;21.83;63.04
53246;BME280;39569;51.090;-1.786;2022-09-02T08:39:43;100680.50;;;22.37;61.34
53246;BME280;39569;51.090;-1.786;2022-09-02T08:42:16;100672.00;;;22.33;61.01
53246;BME280;39569;51.090;-1.786;2022-09-02T08:44:48;100679.19;;;22.61;60.75
53246;BME280;39569;51.090;-1.786;2022-09-02T08:47:22;100670.28;;;22.66;60.44
53246;BME280;39569;51.090;-1.786;2022-09-02T08:49:53;100676.50;;;22.66;60.66
53246;BME280;39569;51.090;-1.786;2022-09-02T08:52:25;100675.06;;;23.07;59.35
53246;BME280;39569;51.090;-1.786;2022-09-02T08:54:54;100681.06;;;23.30;58.29
53246;BME280;39569;51.090;-1.786;2022-09-02T08:57:22;100672.09;;;23.72;57.77
53246;BME280;39569;51.090;-1.786;2022-09-02T08:59:51;100673.31;;;23.49;58.03
53246;BME280;39569;51.090;-1.786;2022-09-02T09:02:24;100672.72;;;23.79;57.46
53246;BME280;39569;51.090;-1.786;2022-09-02T09:05:20;100681.66;;;23.37;58.29
53246;BME280;39569;51.090;-1.786;2022-09-02T09:07:57;100674.47;;;23.58;57.11
53246;BME280;39569;51.090;-1.786;2022-09-02T09:10:37;100673.56;;;23.48;57.42
53246;BME280;39569;51.090;-1.786;2022-09-02T09:13:25;100677.91;;;23.44;57.71
53246;BME280;39569;51.090;-1.786;2022-09-02T09:16:08;100677.44;;;24.30;55.64
53246;BME280;39569;51.090;-1.786;2022-09-02T09:18:40;100681.63;;;23.32;57.82
53246;BME280;39569;51.090;-1.786;2022-09-02T09:21:11;100668.03;;;24.11;55.39
53246;BME280;39569;51.090;-1.786;2022-09-02T09:23:39;100683.00;;;23.67;56.61
53246;BME280;39569;51.090;-1.786;2022-09-02T09:26:08;100677.50;;;23.62;56.39
53246;BME280;39569;51.090;-1.786;2022-09-02T09:28:38;100674.25;;;24.01;55.57
53246;BME280;39569;51.090;-1.786;2022-09-02T09:31:10;100671.22;;;24.50;54.20
53246;BME280;39569;51.090;-1.786;2022-09-02T09:33:37;100677.34;;;23.78;56.03
53246;BME280;39569;51.090;-1.786;2022-09-02T09:36:06;100673.59;;;23.84;56.23
53246;BME280;39569;51.090;-1.786;2022-09-02T09:38:35;100674.44;;;24.36;54.43
53246;BME280;39569;51.090;-1.786;2022-09-02T09:41:11;100668.66;;;23.86;55.22
53246;BME280;39569;51.090;-1.786;2022-09-02T09:43:40;100669.16;;;23.78;55.80
53246;BME280;39569;51.090;-1.786;2022-09-02T09:46:24;100672.09;;;23.72;55.70
53246;BME280;39569;51.090;-1.786;2022-09-02T09:48:52;100679.41;;;23.29;57.51
53246;BME280;39569;51.090;-1.786;2022-09-02T09:51:19;100678.44;;;22.92;57.52
53246;BME280;39569;51.090;-1.786;2022-09-02T09:53:47;100673.34;;;23.54;56.72
53246;BME280;39569;51.090;-1.786;2022-09-02T09:56:27;100667.59;;;23.51;56.65
53246;BME280;39569;51.090;-1.786;2022-09-02T09:58:54;100665.88;;;23.39;56.53
53246;BME280;39569;51.090;-1.786;2022-09-02T10:01:23;100661.75;;;22.84;58.10
53246;BME280;39569;51.090;-1.786;2022-09-02T10:03:54;100659.41;;;23.51;56.38
53246;BME280;39569;51.090;-1.786;2022-09-02T10:06:23;100656.81;;;23.34;56.25
53246;BME280;39569;51.090;-1.786;2022-09-02T10:08:56;100658.28;;;23.47;56.92
53246;BME280;39569;51.090;-1.786;2022-09-02T10:11:25;100656.72;;;22.97;58.15
53246;BME280;39569;51.090;-1.786;2022-09-02T10:13:56;100654.56;;;23.58;56.62
53246;BME280;39569;51.090;-1.786;2022-09-02T10:16:36;100655.81;;;23.45;56.09
53246;BME280;39569;51.090;-1.786;2022-09-02T10:19:12;100656.25;;;23.05;57.07
53246;BME280;39569;51.090;-1.786;2022-09-02T10:21:54;100659.13;;;23.47;55.68
53246;BME280;39569;51.090;-1.786;2022-09-02T10:24:46;100664.28;;;23.80;55.33
53246;BME280;39569;51.090;-1.786;2022-09-02T10:27:25;100662.47;;;23.59;55.71
53246;BME280;39569;51.090;-1.786;2022-09-02T10:29:58;100658.72;;;23.70;55.52
53246;BME280;39569;51.090;-1.786;2022-09-02T10:32:41;100665.03;;;24.12;54.71
53246;BME280;39569;51.090;-1.786;2022-09-02T10:35:17;100652.34;;;24.38;53.78
53246;BME280;39569;51.090;-1.786;2022-09-02T10:37:59;100657.56;;;23.98;54.81
53246;BME280;39569;51.090;-1.786;2022-09-02T10:40:33;100652.66;;;24.00;54.57
53246;BME280;39569;51.090;-1.786;2022-09-02T10:43:07;100650.13;;;23.88;54.23
53246;BME280;39569;51.090;-1.786;2022-09-02T10:45:37;100652.72;;;24.62;52.29
53246;BME280;39569;51.090;-1.786;2022-09-02T10:48:18;100642.41;;;24.79;51.77
53246;BME280;39569;51.090;-1.786;2022-09-02T10:50:52;100634.53;;;25.02;51.03
53246;BME280;39569;51.090;-1.786;2022-09-02T10:53:33;100629.34;;;25.76;48.77
53246;BME280;39569;51.090;-1.786;2022-09-02T10:56:05;100632.66;;;25.58;49.24
53246;BME280;39569;51.090;-1.786;2022-09-02T10:58:41;100629.28;;;25.86;49.01
53246;BME280;39569;51.090;-1.786;2022-09-02T11:01:19;100625.53;;;25.67;49.00
53246;BME280;39569;51.090;-1.786;2022-09-02T11:03:57;100620.16;;;26.31;47.86
53246;BME280;39569;51.090;-1.786;2022-09-02T11:06:29;100629.75;;;26.34;47.70
53246;BME280;39569;51.090;-1.786;2022-09-02T11:09:00;100614.75;;;26.75;45.96
53246;BME280;39569;51.090;-1.786;2022-09-02T11:11:31;100605.72;;;27.47;45.59
53246;BME280;39569;51.090;-1.786;2022-09-02T11:14:13;100609.13;;;27.62;44.05
53246;BME280;39569;51.090;-1.786;2022-09-02T11:16:46;100600.38;;;28.12;43.49
53246;BME280;39569;51.090;-1.786;2022-09-02T11:19:19;100597.97;;;27.82;44.09
53246;BME280;39569;51.090;-1.786;2022-09-02T11:21:51;100599.09;;;27.19;45.04
53246;BME280;39569;51.090;-1.786;2022-09-02T11:24:26;100601.22;;;26.93;45.49
53246;BME280;39569;51.090;-1.786;2022-09-02T11:27:00;100593.97;;;27.41;44.98
53246;BME280;39569;51.090;-1.786;2022-09-02T11:29:36;100601.06;;;26.11;47.59
53246;BME280;39569;51.090;-1.786;2022-09-02T11:32:13;100591.50;;;26.62;47.13
53246;BME280;39569;51.090;-1.786;2022-09-02T11:34:45;100593.25;;;26.43;48.01
53246;BME280;39569;51.090;-1.786;2022-09-02T11:37:23;100596.00;;;26.38;47.14
53246;BME280;39569;51.090;-1.786;2022-09-02T11:39:56;100590.44;;;25.89;48.74
53246;BME280;39569;51.090;-1.786;2022-09-02T11:42:41;100582.25;;;25.84;49.60
53246;BME280;39569;51.090;-1.786;2022-09-02T11:49:02;100569.84;;;26.61;47.83
53246;BME280;39569;51.090;-1.786;2022-09-02T11:54:34;100562.97;;;27.07;46.17
53246;BME280;39569;51.090;-1.786;2022-09-02T11:57:04;100568.31;;;27.22;46.38
53246;BME280;39569;51.090;-1.786;2022-09-02T12:02:48;100559.56;;;26.91;45.38
53246;BME280;39569;51.090;-1.786;2022-09-02T12:06:03;100552.25;;;26.77;45.65
53246;BME280;39569;51.090;-1.786;2022-09-02T12:09:00;100557.66;;;26.43;46.98
53246;BME280;39569;51.090;-1.786;2022-09-02T12:11:51;100544.72;;;27.26;45.84
53246;BME280;39569;51.090;-1.786;2022-09-02T12:17:36;100538.59;;;27.63;45.40
53246;BME280;39569;51.090;-1.786;2022-09-02T12:20:07;100542.06;;;27.97;43.42
53246;BME280;39569;51.090;-1.786;2022-09-02T12:22:36;100537.25;;;27.60;42.91
53246;BME280;39569;51.090;-1.786;2022-09-02T12:25:36;100532.47;;;27.71;43.08
53246;BME280;39569;51.090;-1.786;2022-09-02T12:28:21;100534.22;;;27.62;43.86
53246;BME280;39569;51.090;-1.786;2022-09-02T12:31:13;100532.78;;;27.69;43.31
53246;BME280;39569;51.090;-1.786;2022-09-02T12:33:44;100530.41;;;27.29;42.77
53246;BME280;39569;51.090;-1.786;2022-09-02T12:36:44;100527.75;;;28.61;40.62
53246;BME280;39569;51.090;-1.786;2022-09-02T12:42:29;100506.09;;;31.12;35.69
53246;BME280;39569;51.090;-1.786;2022-09-02T12:45:05;100501.34;;;32.05;32.99
53246;BME280;39569;51.090;-1.786;2022-09-02T12:47:45;100499.91;;;29.99;35.22
53246;BME280;39569;51.090;-1.786;2022-09-02T12:50:24;100499.59;;;30.28;34.81
53246;BME280;39569;51.090;-1.786;2022-09-02T12:53:07;100499.59;;;30.01;36.30
53246;BME280;39569;51.090;-1.786;2022-09-02T12:55:37;100493.25;;;30.14;35.08
53246;BME280;39569;51.090;-1.786;2022-09-02T12:58:09;100489.31;;;29.06;37.01
53246;BME280;39569;51.090;-1.786;2022-09-02T13:00:44;100501.66;;;28.40;37.21
53246;BME280;39569;51.090;-1.786;2022-09-02T13:06:21;100488.88;;;29.99;33.04
53246;BME280;39569;51.090;-1.786;2022-09-02T13:09:06;100495.41;;;29.03;34.79
53246;BME280;39569;51.090;-1.786;2022-09-02T13:12:08;100488.97;;;29.40;34.25
53246;BME280;39569;51.090;-1.786;2022-09-02T13:15:04;100503.38;;;28.54;34.54
53246;BME280;39569;51.090;-1.786;2022-09-02T13:17:47;100500.97;;;28.10;35.36